sensor_id;sensor_type;location;lat;lon;timestamp;pressure;altitude;pressure_sealevel;temperature;humidity
53689;BME280;39583;54.682;30.662;2023-02-16T08:05:05;100189.81;;;2.10;79.64
53689;BME280;39583;54.682;30.662;2023-02-16T08:07:32;100197.34;;;2.32;79.94
53689;BME280;39583;54.682;30.662;2023-02-16T08:09:58;100195.59;;;2.51;79.42
53689;BME280;39583;54.682;30.662;2023-02-16T08:12:25;100192.25;;;2.66;79.72
53689;BME280;39583;54.682;30.662;2023-02-16T08:14:52;100192.72;;;2.80;79.35
53689;BME280;39583;54.682;30.662;2023-02-16T08:17:18;100189.31;;;2.87;79.23
53689;BME280;39583;54.682;30.662;2023-02-16T08:19:45;100185.53;;;2.98;79.26
53689;BME280;39583;54.682;30.662;2023-02-16T08:22:11;100179.69;;;3.12;78.88
53689;BME280;39583;54.682;30.662;2023-02-16T08:24:37;100185.59;;;3.24;78.62
53689;BME280;39583;54.682;30.662;2023-02-16T08:27:03;100190.78;;;3.25;78.60
53689;BME280;39583;54.682;30.662;2023-02-16T08:29:31;100194.81;;;3.30;78.85
53689;BME280;39583;54.682;30.662;2023-02-16T09:32:36;100138.31;;;2.56;76.81
53689;BME280;39583;54.682;30.662;2023-02-16T09:35:03;100131.47;;;2.72;77.10
53689;BME280;39583;54.682;30.662;2023-02-16T09:37:31;100132.63;;;2.87;77.35
53689;BME280;39583;54.682;30.662;2023-02-16T09:39:57;100136.38;;;3.02;77.10
53689;BME280;39583;54.682;30.662;2023-02-16T09:45:10;100130.06;;;3.03;76.97
53689;BME280;39583;54.682;30.662;2023-02-16T09:47:41;100122.88;;;3.21;77.43
53689;BME280;39583;54.682;30.662;2023-02-16T09:50:19;100113.97;;;3.31;76.99
53689;BME280;39583;54.682;30.662;2023-02-16T09:53:02;100115.81;;;3.38;76.80
53689;BME280;39583;54.682;30.662;2023-02-16T09:58:35;100111.22;;;3.48;76.38
53689;BME280;39583;54.682;30.662;2023-02-16T10:03:51;100104.88;;;3.41;75.37
53689;BME280;39583;54.682;30.662;2023-02-16T10:06:29;100101.44;;;3.23;75.24
53689;BME280;39583;54.682;30.662;2023-02-16T10:09:07;100109.22;;;3.16;75.67
53689;BME280;39583;54.682;30.662;2023-02-16T10:11:51;100106.22;;;3.19;75.73
53689;BME280;39583;54.682;30.662;2023-02-16T10:20:04;100107.47;;;3.33;75.71
53689;BME280;39583;54.682;30.662;2023-02-16T10:22:46;100101.53;;;3.39;75.40
53689;BME280;39583;54.682;30.662;2023-02-16T10:25:47;100092.41;;;3.42;75.47
53689;BME280;39583;54.682;30.662;2023-02-16T10:28:36;100097.31;;;3.29;74.89
53689;BME280;39583;54.682;30.662;2023-02-16T10:33:44;100081.44;;;3.19;75.06
53689;BME280;39583;54.682;30.662;2023-02-16T10:39:13;100086.94;;;3.17;75.09
53689;BME280;39583;54.682;30.662;2023-02-16T10:41:46;100070.50;;;2.96;74.38
53689;BME280;39583;54.682;30.662;2023-02-16T10:44:17;100077.03;;;3.02;74.92
53689;BME280;39583;54.682;30.662;2023-02-16T10:46:48;100068.88;;;3.03;74.69
53689;BME280;39583;54.682;30.662;2023-02-16T10:49:17;100069.06;;;3.10;74.96
53689;BME280;39583;54.682;30.662;2023-02-16T10:51:47;100056.44;;;3.12;74.36
53689;BME280;39583;54.682;30.662;2023-02-16T10:54:25;100064.75;;;3.09;74.40
53689;BME280;39583;54.682;30.662;2023-02-16T10:57:04;100053.44;;;3.07;73.73
53689;BME280;39583;54.682;30.662;2023-02-16T10:59:40;100037.06;;;2.93;73.37
53689;BME280;39583;54.682;30.662;2023-02-16T11:02:27;100044.38;;;2.91;73.70
53689;BME280;39583;54.682;30.662;2023-02-16T11:04:56;100053.66;;;2.87;73.92
53689;BME280;39583;54.682;30.662;2023-02-16T11:07:27;100047.03;;;2.91;73.78
53689;BME280;39583;54.682;30.662;2023-02-16T11:09:57;100044.03;;;2.94;73.84
53689;BME280;39583;54.682;30.662;2023-02-16T11:12:33;100052.53;;;2.98;73.57
53689;BME280;39583;54.682;30.662;2023-02-16T11:23:16;100036.94;;;3.29;73.52
53689;BME280;39583;54.682;30.662;2023-02-16T11:33:53;100013.53;;;3.49;73.21
53689;BME280;39583;54.682;30.662;2023-02-16T11:36:35;100020.38;;;3.51;73.16
53689;BME280;39583;54.682;30.662;2023-02-16T11:39:23;100006.41;;;3.49;73.06
53689;BME280;39583;54.682;30.662;2023-02-16T11:41:59;100013.13;;;3.70;73.29
53689;BME280;39583;54.682;30.662;2023-02-16T11:44:32;100015.47;;;3.73;73.05
53689;BME280;39583;54.682;30.662;2023-02-16T11:47:02;100013.16;;;3.78;72.80
53689;BME280;39583;54.682;30.662;2023-02-16T11:49:36;100006.84;;;3.79;72.84
53689;BME280;39583;54.682;30.662;2023-02-16T11:54:58;100009.34;;;3.80;72.52
53689;BME280;39583;54.682;30.662;2023-02-16T11:57:32;99999.19;;;3.84;72.66
53689;BME280;39583;54.682;30.662;2023-02-16T12:00:00;99998.97;;;3.77;72.48
53689;BME280;39583;54.682;30.662;2023-02-16T12:05:50;99998.00;;;3.78;72.53
53689;BME280;39583;54.682;30.662;2023-02-16T12:11:33;99985.47;;;3.54;72.18
53689;BME280;39583;54.682;30.662;2023-02-16T12:16:49;99982.53;;;3.32;71.94
53689;BME280;39583;54.682;30.662;2023-02-16T12:22:25;99982.16;;;3.18;72.21
53689;BME280;39583;54.682;30.662;2023-02-16T12:28:23;99978.41;;;3.37;72.27
53689;BME280;39583;54.682;30.662;2023-02-16T12:39:02;99973.84;;;3.13;71.78
53689;BME280;39583;54.682;30.662;2023-02-16T12:44:51;99965.91;;;2.95;71.45
53689;BME280;39583;54.682;30.662;2023-02-16T12:47:36;99970.66;;;2.84;71.39
53689;BME280;39583;54.682;30.662;2023-02-16T12:50:27;99952.53;;;2.79;71.82
53689;BME280;39583;54.682;30.662;2023-02-16T12:52:58;99962.91;;;2.90;71.67
53689;BME280;39583;54.682;30.662;2023-02-16T12:55:31;99953.44;;;2.96;71.68
53689;BME280;39583;54.682;30.662;2023-02-16T12:58:29;99954.59;;;2.93;71.35
53689;BME280;39583;54.682;30.662;2023-02-16T13:01:00;99954.41;;;2.87;71.28
53689;BME280;39583;54.682;30.662;2023-02-16T13:03:38;99953.88;;;2.83;71.54
53689;BME280;39583;54.682;30.662;2023-02-16T13:07:19;99950.34;;;2.75;71.31
53689;BME280;39583;54.682;30.662;2023-02-16T13:09:27;99950.88;;;2.52;71.39
53689;BME280;39583;54.682;30.662;2023-02-16T13:12:07;99950.38;;;2.49;71.50
53689;BME280;39583;54.682;30.662;2023-02-16T13:14:39;99940.81;;;2.38;71.35
53689;BME280;39583;54.682;30.662;2023-02-16T13:17:15;99946.66;;;2.42;70.88
53689;BME280;39583;54.682;30.662;2023-02-16T13:19:43;99953.44;;;2.36;71.41
53689;BME280;39583;54.682;30.662;2023-02-16T13:33:49;99936.75;;;2.08;70.75
53689;BME280;39583;54.682;30.662;2023-02-16T13:36:40;99934.03;;;2.00;70.81
53689;BME280;39583;54.682;30.662;2023-02-16T13:44:52;99933.28;;;1.90;71.10
53689;BME280;39583;54.682;30.662;2023-02-16T13:47:29;99929.28;;;1.86;70.62
53689;BME280;39583;54.682;30.662;2023-02-16T13:50:23;99934.19;;;1.81;70.90
53689;BME280;39583;54.682;30.662;2023-02-16T13:52:53;99938.47;;;1.73;70.49
53689;BME280;39583;54.682;30.662;2023-02-16T13:55:25;99928.59;;;1.66;70.79
53689;BME280;39583;54.682;30.662;2023-02-16T13:57:57;99932.75;;;1.68;70.88
53689;BME280;39583;54.682;30.662;2023-02-16T14:02:56;99932.22;;;1.65;70.55
53689;BME280;39583;54.682;30.662;2023-02-16T14:05:26;99927.38;;;1.60;70.88
53689;BME280;39583;54.682;30.662;2023-02-16T14:08:26;99927.91;;;1.46;70.28
53689;BME280;39583;54.682;30.662;2023-02-16T14:16:07;99932.28;;;1.37;70.81
53689;BME280;39583;54.682;30.662;2023-02-16T14:21:30;99922.03;;;1.25;70.64
53689;BME280;39583;54.682;30.662;2023-02-16T14:23:59;99925.84;;;1.12;70.54
53689;BME280;39583;54.682;30.662;2023-02-16T14:26:26;99915.56;;;1.09;70.62
53689;BME280;39583;54.682;30.662;2023-02-16T14:28:58;99919.88;;;1.10;70.90
53689;BME280;39583;54.682;30.662;2023-02-16T14:31:27;99919.03;;;1.10;70.64
53689;BME280;39583;54.682;30.662;2023-02-16T14:34:10;99920.56;;;1.12;71.03
53689;BME280;39583;54.682;30.662;2023-02-16T14:39:40;99907.56;;;1.19;70.77
53689;BME280;39583;54.682;30.662;2023-02-16T14:42:28;99917.06;;;1.12;70.39
53689;BME280;39583;54.682;30.662;2023-02-16T14:47:56;99910.59;;;0.97;70.71
53689;BME280;39583;54.682;30.662;2023-02-16T15:01:16;99910.34;;;0.90;70.99
53689;BME280;39583;54.682;30.662;2023-02-16T15:06:29;99917.22;;;0.83;70.70
53689;BME280;39583;54.682;30.662;2023-02-16T15:08:59;99888.53;;;0.69;71.12
53689;BME280;39583;54.682;30.662;2023-02-16T15:11:34;99901.88;;;0.77;70.67
53689;BME280;39583;54.682;30.662;2023-02-16T15:14:23;99904.84;;;0.74;71.23
53689;BME280;39583;54.682;30.662;2023-02-16T15:16:50;99890.91;;;0.72;71.10
53689;BME280;39583;54.682;30.662;2023-02-16T15:19:25;99897.63;;;0.66;71.05
53689;BME280;39583;54.682;30.662;2023-02-16T15:22:19;99899.56;;;0.64;71.33
53689;BME280;39583;54.682;30.662;2023-02-16T15:25:01;99895.66;;;0.68;71.20
53689;BME280;39583;54.682;30.662;2023-02-16T15:27:28;99887.72;;;0.68;71.18
53689;BME280;39583;54.682;30.662;2023-02-16T15:30:23;99897.34;;;0.69;70.97
53689;BME280;39583;54.682;30.662;2023-02-16T15:32:55;99896.34;;;0.70;71.13
53689;BME280;39583;54.682;30.662;2023-02-16T15:35:27;99896.19;;;0.72;71.36
53689;BME280;39583;54.682;30.662;2023-02-16T15:38:22;99902.19;;;0.74;71.22
53689;BME280;39583;54.682;30.662;2023-02-16T15:40:53;99881.16;;;0.63;71.00
53689;BME280;39583;54.682;30.662;2023-02-16T15:43:29;99899.00;;;0.70;71.06
53689;BME280;39583;54.682;30.662;2023-02-16T15:45:57;99887.22;;;0.55;70.85
53689;BME280;39583;54.682;30.662;2023-02-16T15:48:31;99900.13;;;0.68;71.14
53689;BME280;39583;54.682;30.662;2023-02-16T15:53:43;99884.41;;;0.56;71.32
53689;BME280;39583;54.682;30.662;2023-02-16T15:58:56;99899.97;;;0.69;70.84
53689;BME280;39583;54.682;30.662;2023-02-16T16:01:33;99909.22;;;0.65;71.20
53689;BME280;39583;54.682;30.662;2023-02-16T16:04:21;99898.63;;;0.65;71.20
53689;BME280;39583;54.682;30.662;2023-02-16T16:06:49;99903.03;;;0.65;70.76
53689;BME280;39583;54.682;30.662;2023-02-16T16:11:48;99896.91;;;0.64;71.23
53689;BME280;39583;54.682;30.662;2023-02-16T16:14:15;99903.34;;;0.62;71.10
53689;BME280;39583;54.682;30.662;2023-02-16T16:16:43;99900.16;;;0.58;71.16
53689;BME280;39583;54.682;30.662;2023-02-16T16:19:22;99898.63;;;0.55;70.95
53689;BME280;39583;54.682;30.662;2023-02-16T16:21:52;99895.00;;;0.56;71.33
53689;BME280;39583;54.682;30.662;2023-02-16T16:24:34;99889.44;;;0.50;71.06
53689;BME280;39583;54.682;30.662;2023-02-16T16:27:11;99892.75;;;0.62;71.19
53689;BME280;39583;54.682;30.662;2023-02-16T16:29:46;99894.31;;;0.54;71.28
53689;BME280;39583;54.682;30.662;2023-02-16T16:32:24;99896.41;;;0.51;71.18
53689;BME280;39583;54.682;30.662;2023-02-16T16:34:53;99893.22;;;0.47;71.43
53689;BME280;39583;54.682;30.662;2023-02-16T16:37:29;99893.22;;;0.47;71.07
53689;BME280;39583;54.682;30.662;2023-02-16T16:45:47;99885.88;;;0.41;71.21
53689;BME280;39583;54.682;30.662;2023-02-16T16:50:43;99893.25;;;0.38;71.14
53689;BME280;39583;54.682;30.662;2023-02-16T16:56:17;99889.38;;;0.32;70.85
53689;BME280;39583;54.682;30.662;2023-02-16T16:58:48;99878.38;;;0.27;71.10
53689;BME280;39583;54.682;30.662;2023-02-16T17:01:15;99889.22;;;0.34;71.07
53689;BME280;39583;54.682;30.662;2023-02-16T17:03:41;99878.78;;;0.32;71.14
53689;BME280;39583;54.682;30.662;2023-02-16T17:06:08;99884.22;;;0.31;71.06
53689;BME280;39583;54.682;30.662;2023-02-16T17:08:35;99890.66;;;0.28;71.10
53689;BME280;39583;54.682;30.662;2023-02-16T17:11:03;99860.41;;;0.11;70.76
53689;BME280;39583;54.682;30.662;2023-02-16T17:13:29;99878.56;;;0.16;71.10
53689;BME280;39583;54.682;30.662;2023-02-16T17:16:05;99887.03;;;0.19;70.68
53689;BME280;39583;54.682;30.662;2023-02-16T17:18:32;99875.59;;;0.19;71.01
53689;BME280;39583;54.682;30.662;2023-02-16T17:20:58;99876.59;;;0.18;70.52
53689;BME280;39583;54.682;30.662;2023-02-16T17:23:25;99873.78;;;0.19;70.67
53689;BME280;39583;54.682;30.662;2023-02-16T17:25:51;99869.09;;;0.13;70.48
53689;BME280;39583;54.682;30.662;2023-02-16T17:28:18;99871.31;;;0.08;70.46
53689;BME280;39583;54.682;30.662;2023-02-16T17:30:45;99872.28;;;0.07;70.56
53689;BME280;39583;54.682;30.662;2023-02-16T17:33:11;99878.84;;;0.03;70.39
53689;BME280;39583;54.682;30.662;2023-02-16T17:35:40;99875.63;;;-0.01;70.71
53689;BME280;39583;54.682;30.662;2023-02-16T17:38:12;99875.78;;;-0.02;70.80
53689;BME280;39583;54.682;30.662;2023-02-16T17:40:39;99874.53;;;-0.08;70.47
53689;BME280;39583;54.682;30.662;2023-02-16T17:43:13;99871.63;;;-0.14;70.22
53689;BME280;39583;54.682;30.662;2023-02-16T17:45:41;99868.41;;;-0.18;70.52
53689;BME280;39583;54.682;30.662;2023-02-16T17:48:18;99871.78;;;-0.25;70.29
53689;BME280;39583;54.682;30.662;2023-02-16T17:50:46;99869.97;;;-0.25;70.69
53689;BME280;39583;54.682;30.662;2023-02-16T17:53:15;99870.09;;;-0.26;70.19
53689;BME280;39583;54.682;30.662;2023-02-16T17:55:42;99872.19;;;-0.30;70.35
53689;BME280;39583;54.682;30.662;2023-02-16T17:58:10;99867.88;;;-0.31;70.64
53689;BME280;39583;54.682;30.662;2023-02-16T18:00:37;99869.25;;;-0.27;70.63
53689;BME280;39583;54.682;30.662;2023-02-16T18:03:04;99864.69;;;-0.25;70.30
53689;BME280;39583;54.682;30.662;2023-02-16T18:05:31;99856.47;;;-0.32;70.33
53689;BME280;39583;54.682;30.662;2023-02-16T18:07:58;99865.09;;;-0.39;70.37
53689;BME280;39583;54.682;30.662;2023-02-16T18:13:06;99853.66;;;-0.40;70.47
53689;BME280;39583;54.682;30.662;2023-02-16T18:15:33;99863.41;;;-0.40;70.38
53689;BME280;39583;54.682;30.662;2023-02-16T18:17:59;99861.06;;;-0.43;70.66
53689;BME280;39583;54.682;30.662;2023-02-16T18:20:26;99858.28;;;-0.42;70.27
53689;BME280;39583;54.682;30.662;2023-02-16T18:22:52;99862.03;;;-0.44;70.28
53689;BME280;39583;54.682;30.662;2023-02-16T18:25:22;99846.31;;;-0.55;70.24
53689;BME280;39583;54.682;30.662;2023-02-16T18:27:48;99867.75;;;-0.49;70.29
53689;BME280;39583;54.682;30.662;2023-02-16T18:30:15;99865.81;;;-0.47;70.39
53689;BME280;39583;54.682;30.662;2023-02-16T18:32:42;99859.13;;;-0.51;70.04
53689;BME280;39583;54.682;30.662;2023-02-16T18:35:12;99864.81;;;-0.46;70.00
53689;BME280;39583;54.682;30.662;2023-02-16T18:37:40;99865.25;;;-0.50;70.40
53689;BME280;39583;54.682;30.662;2023-02-16T18:40:08;99862.16;;;-0.55;69.92
53689;BME280;39583;54.682;30.662;2023-02-16T18:42:35;99862.59;;;-0.60;70.40
53689;BME280;39583;54.682;30.662;2023-02-16T18:45:03;99856.34;;;-0.59;70.63
53689;BME280;39583;54.682;30.662;2023-02-16T18:47:30;99852.84;;;-0.60;70.27
53689;BME280;39583;54.682;30.662;2023-02-16T18:49:57;99847.84;;;-0.63;70.28
53689;BME280;39583;54.682;30.662;2023-02-16T18:52:25;99852.72;;;-0.58;70.29
53689;BME280;39583;54.682;30.662;2023-02-16T18:54:52;99852.72;;;-0.58;70.44
53689;BME280;39583;54.682;30.662;2023-02-16T18:57:18;99851.44;;;-0.54;70.34
53689;BME280;39583;54.682;30.662;2023-02-16T18:59:48;99849.63;;;-0.53;70.58
53689;BME280;39583;54.682;30.662;2023-02-16T19:02:14;99848.13;;;-0.56;70.33
53689;BME280;39583;54.682;30.662;2023-02-16T19:04:41;99844.34;;;-0.53;70.49
53689;BME280;39583;54.682;30.662;2023-02-16T19:07:08;99845.31;;;-0.54;70.22
53689;BME280;39583;54.682;30.662;2023-02-16T19:09:34;99849.38;;;-0.60;70.51
53689;BME280;39583;54.682;30.662;2023-02-16T19:12:00;99840.91;;;-0.64;70.54
53689;BME280;39583;54.682;30.662;2023-02-16T19:14:26;99830.31;;;-0.64;70.65
53689;BME280;39583;54.682;30.662;2023-02-16T19:16:52;99808.84;;;-0.80;70.42
53689;BME280;39583;54.682;30.662;2023-02-16T19:19:18;99824.44;;;-0.67;70.63
